Aktuell METAR/TAF ESNU/UME

100950Z 30012KT 9999 SCT045 17/07 Q1005=

100830Z 1009/1018 27007KT 9999 SCT045 BKN060=
Källa: Luftfartsverket (aro.lfv.se)